Terminal Aerodrome Forecast
Issued by NWS

Current Version | Previous Version | Text Only | Print | Product List | Glossary On
Versions: 1 2 3 4 5 6 7 8 9 10 11 12
000
FTUS46 KLOX 290500
TAFSBP
TAF
KSBP 290533Z 2906/3006 VRB03KT P6SM SCT200
     FM292000 23008KT P6SM BKN200
     FM300100 28008KT P6SM OVC020=

USA.gov is the U.S. government's official web portal to all federal, state and local government web resources and services.